createdAt,value
2017-04-27T00:01:25.463Z,99.90
2017-04-27T00:03:53.411Z,99.90
2017-04-27T00:06:21.340Z,99.90
2017-04-27T00:08:49.672Z,99.90
2017-04-27T00:11:17.575Z,99.90
2017-04-27T00:13:45.553Z,99.90
2017-04-27T00:16:13.511Z,99.90
2017-04-27T00:18:41.051Z,99.90
2017-04-27T00:21:08.991Z,99.90
2017-04-27T00:23:36.959Z,99.90
2017-04-27T00:26:04.896Z,99.90
2017-04-27T00:28:33.213Z,99.90
2017-04-27T00:31:01.172Z,99.90
2017-04-27T00:33:29.111Z,99.90
2017-04-27T00:35:57.423Z,99.90
2017-04-27T00:38:24.990Z,99.90
2017-04-27T00:40:52.924Z,99.90
2017-04-27T00:43:21.235Z,99.90
2017-04-27T00:45:49.195Z,99.90
2017-04-27T00:48:17.135Z,99.90
2017-04-27T00:50:45.096Z,99.90
2017-04-27T00:53:12.653Z,99.90
2017-04-27T00:55:40.592Z,99.90
2017-04-27T00:58:08.537Z,99.90
2017-04-27T01:00:36.498Z,99.90
2017-04-27T01:03:04.431Z,99.90
2017-04-27T01:05:32.374Z,99.90
2017-04-27T01:08:00.339Z,99.90
2017-04-27T01:10:28.283Z,99.90
2017-04-27T01:12:56.230Z,99.90
2017-04-27T01:15:24.563Z,99.90
2017-04-27T01:17:52.512Z,99.90
2017-04-27T01:20:20.058Z,99.90
2017-04-27T01:22:48.023Z,99.90
2017-04-27T01:25:15.577Z,99.90
2017-04-27T01:27:43.116Z,99.90
2017-04-27T01:30:11.085Z,99.90
2017-04-27T01:32:39.025Z,99.90
2017-04-27T01:35:06.968Z,99.90
2017-04-27T01:37:34.932Z,99.90
2017-04-27T01:40:02.873Z,99.90
2017-04-27T01:42:30.816Z,99.90
2017-04-27T01:44:58.801Z,99.90
2017-04-27T01:47:26.735Z,99.90
2017-04-27T01:49:54.290Z,99.90
2017-04-27T01:52:21.861Z,99.90
2017-04-27T01:54:49.774Z,99.90
2017-04-27T01:57:17.756Z,99.90
2017-04-27T01:59:46.097Z,99.90
2017-04-27T02:02:14.041Z,99.90
2017-04-27T02:04:41.977Z,99.90
2017-04-27T02:07:09.539Z,99.90
2017-04-27T02:09:37.481Z,99.90
2017-04-27T02:12:05.423Z,99.90
2017-04-27T02:14:32.989Z,99.90
2017-04-27T02:17:00.928Z,99.90
2017-04-27T02:19:28.529Z,99.90
2017-04-27T02:21:56.488Z,99.90
2017-04-27T02:24:24.437Z,99.90
2017-04-27T02:26:51.981Z,99.90
2017-04-27T02:29:19.548Z,99.90
2017-04-27T02:31:47.484Z,99.90
2017-04-27T02:34:15.032Z,99.90
2017-04-27T02:36:43.013Z,99.90
2017-04-27T02:39:10.944Z,99.90
2017-04-27T02:41:38.517Z,99.90
2017-04-27T02:44:06.479Z,99.90
2017-04-27T02:46:34.149Z,99.90
2017-04-27T02:49:02.089Z,99.90
2017-04-27T02:51:29.656Z,99.90
2017-04-27T02:53:57.600Z,99.90
2017-04-27T02:56:25.904Z,99.90
2017-04-27T02:58:53.873Z,99.90
2017-04-27T03:01:21.826Z,99.90
2017-04-27T03:03:50.129Z,99.90
2017-04-27T03:06:18.083Z,99.90
2017-04-27T03:08:46.029Z,99.90
2017-04-27T03:11:14.340Z,99.90
2017-04-27T03:13:42.276Z,99.90
2017-04-27T03:16:10.257Z,99.90
2017-04-27T03:18:38.573Z,99.90
2017-04-27T03:21:06.140Z,99.90
2017-04-27T03:23:34.092Z,99.90
2017-04-27T03:26:02.030Z,99.90
2017-04-27T03:28:30.361Z,99.90
2017-04-27T03:30:58.308Z,99.90
2017-04-27T03:33:26.286Z,99.90
2017-04-27T03:35:53.851Z,99.90
2017-04-27T03:38:21.401Z,99.90
2017-04-27T03:40:49.358Z,99.90
2017-04-27T03:43:17.319Z,99.90
2017-04-27T03:45:45.630Z,99.90
2017-04-27T03:48:13.584Z,99.90
2017-04-27T03:50:41.552Z,99.90
2017-04-27T03:53:09.492Z,99.90
2017-04-27T03:55:37.799Z,99.90
2017-04-27T03:58:05.769Z,99.90
2017-04-27T04:00:33.720Z,99.90
2017-04-27T04:03:01.268Z,99.90
2017-04-27T04:05:29.268Z,99.90
2017-04-27T04:07:57.573Z,99.90
2017-04-27T04:10:25.116Z,99.90
2017-04-27T04:12:53.089Z,99.90
2017-04-27T04:15:21.024Z,99.90
2017-04-27T04:17:49.330Z,99.90
2017-04-27T04:20:17.294Z,99.90
2017-04-27T04:22:45.232Z,99.90
2017-04-27T04:25:13.167Z,99.90
2017-04-27T04:27:41.133Z,99.90
2017-04-27T04:30:09.069Z,99.90
2017-04-27T04:32:37.377Z,99.90
2017-04-27T04:35:05.328Z,99.90
2017-04-27T04:37:33.278Z,99.90
2017-04-27T04:40:01.613Z,99.90
2017-04-27T04:42:29.573Z,99.90
2017-04-27T04:44:57.520Z,99.90
2017-04-27T04:47:25.460Z,99.90
2017-04-27T04:49:54.103Z,99.90
2017-04-27T04:52:22.057Z,99.90
2017-04-27T04:54:49.604Z,99.90
2017-04-27T04:57:17.589Z,99.90
2017-04-27T04:59:45.524Z,99.90
2017-04-27T05:02:13.857Z,99.90
2017-04-27T05:04:41.821Z,99.90
2017-04-27T05:07:09.756Z,99.90
2017-04-27T05:09:37.329Z,99.90
2017-04-27T05:12:04.874Z,99.90
2017-04-27T05:14:32.812Z,99.90
2017-04-27T05:17:00.380Z,99.90
2017-04-27T05:19:27.919Z,99.90
2017-04-27T05:21:55.880Z,99.90
2017-04-27T05:24:23.845Z,99.90
2017-04-27T05:26:51.388Z,99.90
2017-04-27T05:29:19.321Z,99.90
2017-04-27T05:31:46.883Z,99.90
2017-04-27T05:34:15.193Z,99.90
2017-04-27T05:36:43.132Z,99.90
2017-04-27T05:39:11.475Z,99.90
2017-04-27T05:41:39.412Z,99.90
2017-04-27T05:44:07.352Z,99.90
2017-04-27T05:46:35.333Z,99.90
2017-04-27T05:49:03.637Z,99.90
2017-04-27T05:51:31.577Z,99.90
2017-04-27T05:53:59.917Z,99.90
2017-04-27T05:56:27.860Z,99.90
2017-04-27T05:58:55.792Z,99.90
2017-04-27T06:01:23.368Z,99.90
2017-04-27T06:03:51.314Z,99.90
2017-04-27T06:06:19.256Z,99.90
2017-04-27T06:08:47.233Z,99.90
2017-04-27T06:11:15.167Z,99.90
2017-04-27T06:13:43.118Z,99.90
2017-04-27T06:16:11.080Z,99.90
2017-04-27T06:18:38.637Z,99.90
2017-04-27T06:21:06.948Z,99.90
2017-04-27T06:23:34.915Z,99.90
2017-04-27T06:26:02.849Z,99.90
2017-04-27T06:28:31.164Z,99.90
2017-04-27T06:30:59.159Z,99.90
2017-04-27T06:33:27.108Z,99.90
2017-04-27T06:35:55.058Z,99.90
2017-04-27T06:38:23.020Z,99.90
2017-04-27T06:40:50.955Z,99.90
2017-04-27T06:43:18.899Z,99.90
2017-04-27T06:45:46.869Z,99.90
2017-04-27T06:48:14.821Z,99.90
2017-04-27T06:50:42.383Z,99.90
2017-04-27T06:53:10.346Z,99.90
2017-04-27T06:55:37.896Z,99.90
2017-04-27T06:58:05.827Z,99.90
2017-04-27T07:00:33.799Z,99.90
2017-04-27T07:03:05.584Z,99.90
2017-04-27T07:05:33.922Z,99.90
2017-04-27T07:08:01.893Z,99.90
2017-04-27T07:10:29.844Z,99.90
2017-04-27T07:12:57.384Z,99.90
2017-04-27T07:15:25.341Z,99.90
2017-04-27T07:17:53.652Z,99.90
2017-04-27T07:20:21.191Z,99.90
2017-04-27T07:22:49.161Z,99.90
2017-04-27T07:25:16.699Z,99.90
2017-04-27T07:27:45.016Z,99.90
2017-04-27T07:30:12.594Z,99.90
2017-04-27T07:32:40.139Z,99.90
2017-04-27T07:35:08.077Z,99.90
2017-04-27T07:37:36.412Z,99.90
2017-04-27T07:40:04.317Z,99.90
2017-04-27T07:42:32.288Z,99.90
2017-04-27T07:45:00.256Z,99.90
2017-04-27T07:47:28.559Z,99.90
2017-04-27T07:49:56.917Z,99.60
2017-04-27T07:52:25.259Z,99.90
2017-04-27T07:54:53.200Z,99.90
2017-04-27T07:57:21.132Z,99.90
2017-04-27T07:59:49.465Z,99.90
2017-04-27T08:02:17.464Z,99.90
2017-04-27T08:04:45.004Z,99.90
2017-04-27T08:07:12.968Z,99.90
2017-04-27T08:09:40.912Z,99.90
2017-04-27T08:12:08.855Z,99.90
2017-04-27T08:14:37.185Z,99.80
2017-04-27T08:17:05.124Z,99.90
2017-04-27T08:19:32.659Z,99.90
2017-04-27T08:22:00.232Z,99.90
2017-04-27T08:24:28.595Z,99.90
2017-04-27T08:26:56.909Z,99.90
2017-04-27T08:29:24.484Z,99.90
2017-04-27T08:31:52.411Z,99.90
2017-04-27T08:34:20.725Z,99.90
2017-04-27T08:36:48.683Z,99.90
2017-04-27T08:39:16.633Z,99.90
2017-04-27T08:41:44.943Z,99.90
2017-04-27T08:44:12.928Z,99.90
2017-04-27T08:46:40.467Z,99.90
2017-04-27T08:49:08.445Z,99.90
2017-04-27T08:51:36.002Z,99.90
2017-04-27T08:54:03.945Z,98.70
2017-04-27T08:56:31.912Z,99.90
2017-04-27T08:59:00.233Z,99.90
2017-04-27T09:01:28.185Z,99.00
2017-04-27T09:03:56.212Z,97.80
2017-04-27T09:06:24.164Z,99.40
2017-04-27T09:08:52.104Z,99.90
2017-04-27T09:11:20.073Z,98.70
2017-04-27T09:13:48.016Z,99.60
2017-04-27T09:16:15.961Z,98.40
2017-04-27T09:18:43.541Z,98.40
2017-04-27T09:21:11.866Z,99.10
2017-04-27T09:23:39.797Z,99.60
2017-04-27T09:26:07.391Z,99.60
2017-04-27T09:28:35.336Z,97.40
2017-04-27T09:31:02.884Z,97.40
2017-04-27T09:33:31.232Z,98.20
2017-04-27T09:35:59.200Z,97.40
2017-04-27T09:38:27.146Z,97.90
2017-04-27T09:40:55.084Z,96.70
2017-04-27T09:43:23.056Z,97.80
2017-04-27T09:45:50.604Z,97.80
2017-04-27T09:48:18.921Z,95.30
2017-04-27T09:50:46.888Z,96.40
2017-04-27T09:53:14.840Z,94.70
2017-04-27T09:55:42.788Z,95.40
2017-04-27T09:58:11.131Z,96.00
2017-04-27T10:00:39.080Z,95.40
2017-04-27T10:03:06.632Z,95.40
2017-04-27T10:05:34.600Z,97.30
2017-04-27T10:08:02.543Z,95.40
2017-04-27T10:10:30.093Z,95.40
2017-04-27T10:12:58.436Z,94.40
2017-04-27T10:15:26.379Z,95.10
2017-04-27T10:17:53.929Z,95.10
2017-04-27T10:20:21.905Z,97.00
2017-04-27T10:22:49.851Z,96.60
2017-04-27T10:25:17.812Z,94.30
2017-04-27T10:27:45.390Z,94.20
2017-04-27T10:30:12.939Z,94.50
2017-04-27T10:32:40.491Z,94.00
2017-04-27T10:35:08.065Z,94.80
2017-04-27T10:37:36.381Z,88.90
2017-04-27T10:40:03.949Z,88.90
2017-04-27T10:42:31.523Z,92.40
2017-04-27T10:44:59.477Z,92.80
2017-04-27T10:47:27.425Z,95.10
2017-04-27T10:49:55.391Z,91.40
2017-04-27T10:52:23.328Z,92.00
2017-04-27T10:54:51.275Z,90.70
2017-04-27T10:57:19.244Z,90.50
2017-04-27T10:59:47.176Z,93.40
2017-04-27T11:02:15.120Z,92.90
2017-04-27T11:04:42.684Z,92.90
2017-04-27T11:07:10.999Z,93.20
2017-04-27T11:09:38.944Z,92.80
2017-04-27T11:12:06.921Z,89.60
2017-04-27T11:14:35.231Z,92.20
2017-04-27T11:17:03.164Z,90.40
2017-04-27T11:19:31.500Z,90.00
2017-04-27T11:21:59.441Z,87.70
2017-04-27T11:24:27.380Z,89.10
2017-04-27T11:26:55.335Z,86.50
2017-04-27T11:29:23.312Z,88.10
2017-04-27T11:31:51.247Z,89.30
2017-04-27T11:34:19.212Z,90.70
2017-04-27T11:36:49.527Z,89.90
2017-04-27T11:39:15.120Z,84.90
2017-04-27T11:41:42.693Z,84.90
2017-04-27T11:44:10.658Z,87.80
2017-04-27T11:46:38.944Z,87.40
2017-04-27T11:49:06.910Z,85.10
2017-04-27T11:51:34.459Z,85.10
2017-04-27T11:54:02.400Z,84.50
2017-04-27T11:56:30.360Z,85.60
2017-04-27T11:58:58.295Z,83.80
2017-04-27T12:01:26.240Z,85.70
2017-04-27T12:03:54.188Z,85.60
2017-04-27T12:06:22.505Z,85.30
2017-04-27T12:08:50.440Z,85.10
2017-04-27T12:11:18.025Z,85.10
2017-04-27T12:13:45.965Z,82.80
2017-04-27T12:16:14.316Z,84.30
2017-04-27T12:18:42.256Z,85.10
2017-04-27T12:21:10.212Z,84.70
2017-04-27T12:23:38.161Z,86.00
2017-04-27T12:26:05.731Z,86.00
2017-04-27T12:28:33.704Z,84.90
2017-04-27T12:31:01.614Z,83.50
2017-04-27T12:33:29.996Z,83.00
2017-04-27T12:35:57.947Z,85.30
2017-04-27T12:38:25.880Z,82.90
2017-04-27T12:40:53.444Z,82.90
2017-04-27T12:43:21.752Z,78.30
2017-04-27T12:45:49.695Z,76.60
2017-04-27T12:48:18.026Z,79.80
2017-04-27T12:50:45.959Z,78.00
2017-04-27T12:53:13.895Z,78.10
2017-04-27T12:55:41.998Z,76.90
2017-04-27T12:58:09.531Z,76.90
2017-04-27T13:00:37.067Z,79.60
2017-04-27T13:03:05.089Z,80.90
2017-04-27T13:05:33.032Z,79.20
2017-04-27T13:08:00.963Z,79.90
2017-04-27T13:10:28.932Z,78.80
2017-04-27T13:12:56.872Z,78.00
2017-04-27T13:15:24.407Z,78.00
2017-04-27T13:17:52.739Z,80.60
2017-04-27T13:20:20.680Z,81.10
2017-04-27T13:22:48.619Z,79.80
2017-04-27T13:25:17.296Z,81.90
2017-04-27T13:27:45.223Z,82.30
2017-04-27T13:30:14.269Z,80.60
2017-04-27T13:32:42.221Z,81.00
2017-04-27T13:35:10.160Z,82.10
2017-04-27T13:37:38.093Z,81.00
2017-04-27T13:40:06.056Z,82.90
2017-04-27T13:42:34.355Z,82.80
2017-04-27T13:45:01.891Z,82.80
2017-04-27T13:47:30.228Z,79.30
2017-04-27T13:49:58.165Z,79.80
2017-04-27T13:52:25.707Z,79.80
2017-04-27T13:54:54.048Z,78.00
2017-04-27T13:57:21.989Z,76.60
2017-04-27T13:59:49.928Z,78.40
2017-04-27T14:02:17.498Z,78.40
2017-04-27T14:04:45.778Z,78.10
2017-04-27T14:07:13.373Z,78.10
2017-04-27T14:09:40.957Z,74.60
2017-04-27T14:12:08.901Z,77.20
2017-04-27T14:14:36.837Z,75.30
2017-04-27T14:17:05.475Z,74.60
2017-04-27T14:19:33.417Z,76.60
2017-04-27T14:22:01.355Z,76.30
2017-04-27T14:24:29.679Z,77.10
2017-04-27T14:26:57.644Z,76.00
2017-04-27T14:29:25.573Z,77.90
2017-04-27T14:31:53.912Z,78.10
2017-04-27T14:34:21.880Z,73.00
2017-04-27T14:36:49.852Z,75.50
2017-04-27T14:39:17.844Z,76.90
2017-04-27T14:41:45.449Z,76.80
2017-04-27T14:44:13.385Z,76.80
2017-04-27T14:46:41.345Z,79.40
2017-04-27T14:49:09.305Z,80.10
2017-04-27T14:51:37.248Z,79.70
2017-04-27T14:54:05.206Z,78.70
2017-04-27T14:56:33.172Z,79.80
2017-04-27T14:59:01.129Z,78.40
2017-04-27T15:01:29.072Z,77.30
2017-04-27T15:03:57.041Z,79.50
2017-04-27T15:06:24.972Z,79.80
2017-04-27T15:08:52.517Z,79.80
2017-04-27T15:11:20.087Z,75.90
2017-04-27T15:13:47.992Z,78.80
2017-04-27T15:16:15.969Z,78.50
2017-04-27T15:18:43.936Z,77.10
2017-04-27T15:21:11.907Z,77.00
2017-04-27T15:23:39.869Z,79.00
2017-04-27T15:26:07.812Z,76.50
2017-04-27T15:28:35.769Z,80.50
2017-04-27T15:31:03.724Z,81.00
2017-04-27T15:33:31.660Z,80.50
2017-04-27T15:35:59.617Z,81.00
2017-04-27T15:38:27.581Z,77.90
2017-04-27T15:40:55.549Z,78.10
2017-04-27T15:43:23.522Z,79.90
2017-04-27T15:45:51.485Z,80.70
2017-04-27T15:48:19.441Z,79.70
2017-04-27T15:50:47.383Z,77.30
2017-04-27T15:53:15.715Z,79.10
2017-04-27T15:55:43.647Z,78.10
2017-04-27T15:58:11.592Z,79.50
2017-04-27T16:00:39.170Z,79.50
2017-04-27T16:03:06.717Z,78.60
2017-04-27T16:05:35.016Z,80.40
2017-04-27T16:08:03.010Z,78.00
2017-04-27T16:10:30.980Z,80.20
2017-04-27T16:12:58.926Z,78.70
2017-04-27T16:15:26.493Z,78.70
2017-04-27T16:17:54.469Z,78.30
2017-04-27T16:20:22.405Z,79.40
2017-04-27T16:22:50.719Z,82.10
2017-04-27T16:25:18.672Z,81.60
2017-04-27T16:27:46.603Z,82.80
2017-04-27T16:30:14.152Z,82.80
2017-04-27T16:32:42.120Z,80.40
2017-04-27T16:35:10.051Z,80.60
2017-04-27T16:37:37.988Z,80.60
2017-04-27T16:40:06.315Z,79.00
2017-04-27T16:42:33.846Z,79.00
2017-04-27T16:45:01.795Z,78.60
2017-04-27T16:47:30.124Z,80.40
2017-04-27T16:49:58.070Z,79.20
2017-04-27T16:52:26.035Z,79.40
2017-04-27T16:54:53.608Z,79.40
2017-04-27T16:57:21.573Z,79.80
2017-04-27T16:59:49.527Z,82.90
2017-04-27T17:02:17.893Z,82.60
2017-04-27T17:04:45.444Z,82.60
2017-04-27T17:07:13.391Z,83.30
2017-04-27T17:09:41.450Z,82.80
2017-04-27T17:12:09.417Z,84.90
2017-04-27T17:14:36.963Z,84.90
2017-04-27T17:17:04.518Z,86.60
2017-04-27T17:19:32.782Z,84.10
2017-04-27T17:22:00.771Z,81.40
2017-04-27T17:24:28.520Z,81.40
2017-04-27T17:26:56.741Z,81.00
2017-04-27T17:29:24.967Z,85.40
2017-04-27T17:31:52.933Z,85.40
2017-04-27T17:34:21.400Z,83.90
2017-04-27T17:36:49.836Z,84.30
2017-04-27T17:39:18.267Z,85.50
2017-04-27T17:41:46.648Z,83.80
2017-04-27T17:44:15.178Z,84.50
2017-04-27T17:46:43.801Z,82.90
2017-04-27T17:49:12.458Z,81.90
2017-04-27T17:51:41.267Z,83.00
2017-04-27T17:54:10.178Z,85.90
2017-04-27T17:56:39.226Z,88.00
2017-04-27T17:59:07.736Z,88.00
2017-04-27T18:01:36.693Z,88.00
2017-04-27T18:04:06.055Z,88.50
2017-04-27T18:06:35.000Z,88.90
2017-04-27T18:09:03.622Z,88.90
2017-04-27T18:11:32.700Z,89.80
2017-04-27T18:14:01.710Z,89.50
2017-04-27T18:16:30.622Z,90.00
2017-04-27T18:18:59.621Z,90.90
2017-04-27T18:21:28.642Z,90.80
2017-04-27T18:23:57.263Z,90.90
2017-04-27T18:26:26.699Z,93.00
2017-04-27T18:28:55.660Z,92.40
2017-04-27T18:31:24.619Z,93.10
2017-04-27T18:33:54.083Z,91.40
2017-04-27T18:36:22.622Z,91.40
2017-04-27T18:38:52.002Z,93.30
2017-04-27T18:41:21.101Z,93.50
2017-04-27T18:43:50.901Z,92.80
2017-04-27T18:46:19.912Z,92.00
2017-04-27T18:48:49.169Z,92.40
2017-04-27T18:51:17.728Z,92.40
2017-04-27T18:53:46.659Z,93.50
2017-04-27T18:56:15.792Z,93.60
2017-04-27T18:58:44.310Z,93.60
2017-04-27T19:01:13.315Z,92.60
2017-04-27T19:03:42.385Z,92.00
2017-04-27T19:06:11.512Z,93.60
2017-04-27T19:08:41.076Z,93.60
2017-04-27T19:11:10.494Z,92.70
2017-04-27T19:13:39.578Z,93.40
2017-04-27T19:16:09.254Z,94.30
2017-04-27T19:18:38.239Z,94.00
2017-04-27T19:21:07.218Z,92.50
2017-04-27T19:23:37.077Z,90.90
2017-04-27T19:26:06.433Z,91.40
2017-04-27T19:28:35.882Z,91.20
2017-04-27T19:31:05.192Z,89.60
2017-04-27T19:33:34.572Z,89.00
2017-04-27T19:36:03.954Z,91.80
2017-04-27T19:38:33.316Z,92.00
2017-04-27T19:41:02.619Z,92.50
2017-04-27T19:43:32.303Z,93.00
2017-04-27T19:46:01.166Z,93.00
2017-04-27T19:48:30.467Z,94.90
2017-04-27T19:50:59.371Z,94.90
2017-04-27T19:53:28.703Z,93.70
2017-04-27T19:55:58.203Z,94.80
2017-04-27T19:58:27.176Z,94.30
2017-04-27T20:00:56.319Z,94.20
2017-04-27T20:03:25.419Z,95.00
2017-04-27T20:05:55.149Z,95.30
2017-04-27T20:08:24.217Z,95.50
2017-04-27T20:10:53.537Z,94.90
2017-04-27T20:13:22.521Z,94.50
2017-04-27T20:15:51.678Z,93.60
2017-04-27T20:18:20.696Z,94.50
2017-04-27T20:20:50.037Z,93.70
2017-04-27T20:23:19.086Z,94.50
2017-04-27T20:25:48.976Z,94.60
2017-04-27T20:28:18.796Z,94.60
2017-04-27T20:30:47.861Z,94.50
2017-04-27T20:33:16.410Z,94.50
2017-04-27T20:35:45.726Z,94.20
2017-04-27T20:38:14.432Z,94.20
2017-04-27T20:40:43.387Z,91.90
2017-04-27T20:43:12.032Z,91.90
2017-04-27T20:45:41.095Z,92.30
2017-04-27T20:48:09.642Z,92.30
2017-04-27T20:50:38.622Z,94.10
2017-04-27T20:53:07.639Z,95.10
2017-04-27T20:55:36.206Z,95.10
2017-04-27T20:58:04.998Z,96.60
2017-04-27T21:00:34.084Z,96.20
2017-04-27T21:03:02.864Z,96.60
2017-04-27T21:05:31.372Z,96.80
2017-04-27T21:07:59.966Z,96.90
2017-04-27T21:10:28.133Z,97.40
2017-04-27T21:12:55.860Z,97.40
2017-04-27T21:15:23.461Z,97.00
2017-04-27T21:17:51.009Z,96.80
2017-04-27T21:20:19.340Z,96.20
2017-04-27T21:22:47.308Z,96.70
2017-04-27T21:25:14.881Z,96.70
2017-04-27T21:27:42.819Z,96.90
2017-04-27T21:30:10.800Z,98.10
2017-04-27T21:32:38.761Z,97.50
2017-04-27T21:35:06.707Z,96.90
2017-04-27T21:37:34.640Z,96.10
2017-04-27T21:40:02.616Z,93.90
2017-04-27T21:42:30.554Z,95.40
2017-04-27T21:44:58.532Z,94.80
2017-04-27T21:47:26.495Z,94.70
2017-04-27T21:49:54.442Z,94.00
2017-04-27T21:52:22.387Z,94.80
2017-04-27T21:54:50.728Z,93.70
2017-04-27T21:57:18.667Z,94.00
2017-04-27T21:59:46.630Z,94.40
2017-04-27T22:02:14.599Z,95.10
2017-04-27T22:04:42.551Z,96.10
2017-04-27T22:07:10.095Z,96.10
2017-04-27T22:09:38.068Z,95.00
2017-04-27T22:12:05.636Z,95.00
2017-04-27T22:14:34.172Z,95.70
2017-04-27T22:17:02.158Z,95.90
2017-04-27T22:19:30.099Z,97.00
2017-04-27T22:21:58.044Z,97.80
2017-04-27T22:24:26.353Z,97.60
2017-04-27T22:26:54.312Z,97.50
2017-04-27T22:29:21.862Z,97.50
2017-04-27T22:31:49.431Z,97.20
2017-04-27T22:34:17.400Z,97.80
2017-04-27T22:36:45.339Z,97.30
2017-04-27T22:39:13.288Z,97.90
2017-04-27T22:41:41.251Z,98.20
2017-04-27T22:44:09.192Z,97.50
2017-04-27T22:46:36.743Z,97.50
2017-04-27T22:49:04.720Z,97.70
2017-04-27T22:51:32.652Z,98.40
2017-04-27T22:54:00.972Z,98.70
2017-04-27T22:56:28.931Z,98.30
2017-04-27T22:58:56.875Z,99.00
2017-04-27T23:01:25.185Z,98.70
2017-04-27T23:03:52.757Z,98.70
2017-04-27T23:06:20.301Z,98.50
2017-04-27T23:08:48.246Z,97.00
2017-04-27T23:11:16.200Z,98.00
2017-04-27T23:13:44.152Z,97.50
2017-04-27T23:16:12.094Z,98.20
2017-04-27T23:18:40.066Z,98.40
2017-04-27T23:21:08.004Z,98.90
2017-04-27T23:23:35.948Z,99.00
2017-04-27T23:26:03.924Z,99.00
2017-04-27T23:28:31.863Z,98.50
2017-04-27T23:30:59.799Z,99.30
2017-04-27T23:33:27.773Z,97.90
2017-04-27T23:35:55.713Z,97.40
2017-04-27T23:38:24.563Z,97.70
2017-04-27T23:40:52.948Z,97.80
2017-04-27T23:43:21.320Z,98.00
2017-04-27T23:45:49.304Z,98.00
2017-04-27T23:48:17.853Z,98.40
2017-04-27T23:50:45.793Z,98.40
2017-04-27T23:53:15.701Z,98.30
2017-04-27T23:55:44.775Z,99.00
2017-04-27T23:58:13.212Z,99.00
